sensor_id;sensor_type;location;lat;lon;timestamp;P1;durP1;ratioP1;P2;durP2;ratioP2
70729;SDS011;58315;53.336;55.932;2023-04-25T00:00:31;13.45;;;5.03;;
70729;SDS011;58315;53.336;55.932;2023-04-25T00:02:56;12.05;;;5.00;;
70729;SDS011;58315;53.336;55.932;2023-04-25T00:05:23;11.02;;;4.47;;
70729;SDS011;58315;53.336;55.932;2023-04-25T00:07:49;10.82;;;5.00;;
70729;SDS011;58315;53.336;55.932;2023-04-25T00:10:16;15.95;;;4.53;;
70729;SDS011;58315;53.336;55.932;2023-04-25T00:12:42;13.93;;;4.70;;
70729;SDS011;58315;53.336;55.932;2023-04-25T00:15:08;15.35;;;4.70;;
70729;SDS011;58315;53.336;55.932;2023-04-25T00:17:35;11.35;;;5.18;;
70729;SDS011;58315;53.336;55.932;2023-04-25T00:20:01;11.57;;;5.32;;
70729;SDS011;58315;53.336;55.932;2023-04-25T00:22:30;9.95;;;4.55;;
70729;SDS011;58315;53.336;55.932;2023-04-25T00:24:57;10.85;;;4.93;;
70729;SDS011;58315;53.336;55.932;2023-04-25T00:27:26;13.57;;;4.70;;
70729;SDS011;58315;53.336;55.932;2023-04-25T00:29:52;9.93;;;5.07;;
70729;SDS011;58315;53.336;55.932;2023-04-25T00:32:18;10.77;;;5.00;;
70729;SDS011;58315;53.336;55.932;2023-04-25T00:34:45;13.45;;;6.00;;
70729;SDS011;58315;53.336;55.932;2023-04-25T00:37:11;19.35;;;5.43;;
70729;SDS011;58315;53.336;55.932;2023-04-25T00:39:37;10.10;;;5.25;;
70729;SDS011;58315;53.336;55.932;2023-04-25T00:42:03;10.75;;;5.25;;
70729;SDS011;58315;53.336;55.932;2023-04-25T00:44:30;10.68;;;5.43;;
70729;SDS011;58315;53.336;55.932;2023-04-25T00:46:57;25.60;;;5.00;;
70729;SDS011;58315;53.336;55.932;2023-04-25T00:49:23;12.43;;;5.47;;
70729;SDS011;58315;53.336;55.932;2023-04-25T00:51:50;10.50;;;5.25;;
70729;SDS011;58315;53.336;55.932;2023-04-25T00:54:16;14.35;;;5.38;;
70729;SDS011;58315;53.336;55.932;2023-04-25T00:56:42;16.90;;;6.20;;
70729;SDS011;58315;53.336;55.932;2023-04-25T00:59:09;13.40;;;5.53;;
70729;SDS011;58315;53.336;55.932;2023-04-25T01:01:35;13.82;;;4.95;;
70729;SDS011;58315;53.336;55.932;2023-04-25T01:04:02;15.25;;;5.20;;
70729;SDS011;58315;53.336;55.932;2023-04-25T01:06:28;25.50;;;5.88;;
70729;SDS011;58315;53.336;55.932;2023-04-25T01:08:54;15.90;;;5.57;;
70729;SDS011;58315;53.336;55.932;2023-04-25T01:11:20;8.85;;;4.53;;
70729;SDS011;58315;53.336;55.932;2023-04-25T01:13:47;12.00;;;5.40;;
70729;SDS011;58315;53.336;55.932;2023-04-25T01:16:13;16.30;;;5.60;;
70729;SDS011;58315;53.336;55.932;2023-04-25T01:18:39;14.85;;;5.72;;
70729;SDS011;58315;53.336;55.932;2023-04-25T01:21:08;25.17;;;11.68;;
70729;SDS011;58315;53.336;55.932;2023-04-25T01:23:39;42.00;;;13.43;;
70729;SDS011;58315;53.336;55.932;2023-04-25T01:26:07;7.90;;;4.72;;
70729;SDS011;58315;53.336;55.932;2023-04-25T01:28:35;15.15;;;5.68;;
70729;SDS011;58315;53.336;55.932;2023-04-25T01:31:03;9.20;;;4.90;;
70729;SDS011;58315;53.336;55.932;2023-04-25T01:33:30;17.55;;;5.25;;
70729;SDS011;58315;53.336;55.932;2023-04-25T01:35:56;13.77;;;5.28;;
70729;SDS011;58315;53.336;55.932;2023-04-25T01:38:22;11.35;;;5.13;;
70729;SDS011;58315;53.336;55.932;2023-04-25T01:40:51;21.17;;;6.60;;
70729;SDS011;58315;53.336;55.932;2023-04-25T01:43:19;16.17;;;6.32;;
70729;SDS011;58315;53.336;55.932;2023-04-25T01:45:45;14.68;;;5.57;;
70729;SDS011;58315;53.336;55.932;2023-04-25T01:48:13;24.27;;;6.57;;
70729;SDS011;58315;53.336;55.932;2023-04-25T01:50:40;18.35;;;5.55;;
70729;SDS011;58315;53.336;55.932;2023-04-25T01:53:08;12.10;;;5.55;;
70729;SDS011;58315;53.336;55.932;2023-04-25T01:55:35;16.25;;;5.35;;
70729;SDS011;58315;53.336;55.932;2023-04-25T01:58:06;12.48;;;5.53;;
70729;SDS011;58315;53.336;55.932;2023-04-25T02:01:10;22.75;;;6.05;;
70729;SDS011;58315;53.336;55.932;2023-04-25T02:03:43;28.92;;;7.00;;
70729;SDS011;58315;53.336;55.932;2023-04-25T02:06:18;15.45;;;5.82;;
70729;SDS011;58315;53.336;55.932;2023-04-25T02:08:46;15.00;;;5.97;;
70729;SDS011;58315;53.336;55.932;2023-04-25T02:11:13;14.73;;;5.72;;
70729;SDS011;58315;53.336;55.932;2023-04-25T02:13:49;13.30;;;6.30;;
70729;SDS011;58315;53.336;55.932;2023-04-25T02:16:38;12.70;;;5.78;;
70729;SDS011;58315;53.336;55.932;2023-04-25T02:19:06;14.38;;;5.53;;
70729;SDS011;58315;53.336;55.932;2023-04-25T02:21:32;12.55;;;5.68;;
70729;SDS011;58315;53.336;55.932;2023-04-25T02:24:01;11.70;;;5.55;;
70729;SDS011;58315;53.336;55.932;2023-04-25T02:26:28;16.52;;;6.75;;
70729;SDS011;58315;53.336;55.932;2023-04-25T02:28:56;16.88;;;6.00;;
70729;SDS011;58315;53.336;55.932;2023-04-25T02:31:22;17.38;;;6.70;;
70729;SDS011;58315;53.336;55.932;2023-04-25T02:33:50;11.50;;;5.50;;
70729;SDS011;58315;53.336;55.932;2023-04-25T02:36:16;18.50;;;5.53;;
70729;SDS011;58315;53.336;55.932;2023-04-25T02:38:42;26.08;;;6.63;;
70729;SDS011;58315;53.336;55.932;2023-04-25T02:41:08;15.85;;;6.00;;
70729;SDS011;58315;53.336;55.932;2023-04-25T02:43:34;11.20;;;5.35;;
70729;SDS011;58315;53.336;55.932;2023-04-25T02:46:00;16.90;;;4.90;;
70729;SDS011;58315;53.336;55.932;2023-04-25T02:48:26;17.15;;;5.03;;
70729;SDS011;58315;53.336;55.932;2023-04-25T02:50:52;13.68;;;4.57;;
70729;SDS011;58315;53.336;55.932;2023-04-25T02:53:18;13.32;;;5.85;;
70729;SDS011;58315;53.336;55.932;2023-04-25T02:55:48;11.07;;;5.32;;
70729;SDS011;58315;53.336;55.932;2023-04-25T02:58:14;9.68;;;4.75;;
70729;SDS011;58315;53.336;55.932;2023-04-25T03:00:49;14.02;;;5.28;;
70729;SDS011;58315;53.336;55.932;2023-04-25T03:03:16;21.10;;;5.20;;
70729;SDS011;58315;53.336;55.932;2023-04-25T03:05:44;17.20;;;5.13;;
70729;SDS011;58315;53.336;55.932;2023-04-25T03:08:12;20.38;;;5.57;;
70729;SDS011;58315;53.336;55.932;2023-04-25T03:10:38;11.50;;;4.60;;
70729;SDS011;58315;53.336;55.932;2023-04-25T03:13:07;14.98;;;5.07;;
70729;SDS011;58315;53.336;55.932;2023-04-25T03:15:33;15.75;;;5.97;;
70729;SDS011;58315;53.336;55.932;2023-04-25T03:18:01;15.48;;;5.13;;
70729;SDS011;58315;53.336;55.932;2023-04-25T03:20:27;8.85;;;4.50;;
70729;SDS011;58315;53.336;55.932;2023-04-25T03:22:53;9.85;;;5.03;;
70729;SDS011;58315;53.336;55.932;2023-04-25T03:25:20;16.67;;;5.07;;
70729;SDS011;58315;53.336;55.932;2023-04-25T03:27:46;9.63;;;4.53;;
70729;SDS011;58315;53.336;55.932;2023-04-25T03:30:12;9.32;;;4.40;;
70729;SDS011;58315;53.336;55.932;2023-04-25T03:32:40;10.38;;;4.00;;
70729;SDS011;58315;53.336;55.932;2023-04-25T03:35:06;16.48;;;4.95;;
70729;SDS011;58315;53.336;55.932;2023-04-25T03:37:33;17.95;;;4.50;;
70729;SDS011;58315;53.336;55.932;2023-04-25T03:40:00;22.73;;;4.60;;
70729;SDS011;58315;53.336;55.932;2023-04-25T03:42:39;120.00;;;7.10;;
70729;SDS011;58315;53.336;55.932;2023-04-25T03:45:06;15.60;;;4.57;;
70729;SDS011;58315;53.336;55.932;2023-04-25T03:47:33;33.85;;;4.10;;
70729;SDS011;58315;53.336;55.932;2023-04-25T03:49:59;11.63;;;3.42;;
70729;SDS011;58315;53.336;55.932;2023-04-25T03:52:30;10.02;;;4.22;;
70729;SDS011;58315;53.336;55.932;2023-04-25T03:54:56;10.85;;;3.22;;
70729;SDS011;58315;53.336;55.932;2023-04-25T03:57:24;17.10;;;3.17;;
70729;SDS011;58315;53.336;55.932;2023-04-25T03:59:50;7.45;;;2.95;;
70729;SDS011;58315;53.336;55.932;2023-04-25T04:02:16;11.88;;;5.50;;
70729;SDS011;58315;53.336;55.932;2023-04-25T04:04:43;10.35;;;5.35;;
70729;SDS011;58315;53.336;55.932;2023-04-25T04:07:10;16.55;;;5.07;;
70729;SDS011;58315;53.336;55.932;2023-04-25T04:09:39;9.80;;;3.00;;
70729;SDS011;58315;53.336;55.932;2023-04-25T04:12:12;10.45;;;2.45;;
70729;SDS011;58315;53.336;55.932;2023-04-25T04:14:40;14.40;;;3.33;;
70729;SDS011;58315;53.336;55.932;2023-04-25T04:17:06;31.55;;;3.65;;
70729;SDS011;58315;53.336;55.932;2023-04-25T04:19:32;12.68;;;2.90;;
70729;SDS011;58315;53.336;55.932;2023-04-25T04:22:07;12.90;;;2.90;;
70729;SDS011;58315;53.336;55.932;2023-04-25T04:24:34;9.77;;;2.80;;
70729;SDS011;58315;53.336;55.932;2023-04-25T04:27:03;7.47;;;2.85;;
70729;SDS011;58315;53.336;55.932;2023-04-25T04:29:50;13.65;;;3.50;;
70729;SDS011;58315;53.336;55.932;2023-04-25T04:32:32;27.08;;;3.28;;
70729;SDS011;58315;53.336;55.932;2023-04-25T04:34:59;10.02;;;2.88;;
70729;SDS011;58315;53.336;55.932;2023-04-25T04:37:25;15.68;;;2.70;;
70729;SDS011;58315;53.336;55.932;2023-04-25T04:39:51;7.75;;;3.30;;
70729;SDS011;58315;53.336;55.932;2023-04-25T04:42:45;7.88;;;2.97;;
70729;SDS011;58315;53.336;55.932;2023-04-25T04:45:20;4.38;;;2.38;;
70729;SDS011;58315;53.336;55.932;2023-04-25T04:48:06;32.08;;;2.97;;
70729;SDS011;58315;53.336;55.932;2023-04-25T04:50:56;11.43;;;2.70;;
70729;SDS011;58315;53.336;55.932;2023-04-25T04:53:41;4.97;;;2.50;;
70729;SDS011;58315;53.336;55.932;2023-04-25T04:56:13;10.10;;;2.78;;
70729;SDS011;58315;53.336;55.932;2023-04-25T04:59:09;13.77;;;2.67;;
70729;SDS011;58315;53.336;55.932;2023-04-25T05:02:02;6.35;;;2.35;;
70729;SDS011;58315;53.336;55.932;2023-04-25T05:04:55;16.25;;;2.85;;
70729;SDS011;58315;53.336;55.932;2023-04-25T05:07:57;8.85;;;2.80;;
70729;SDS011;58315;53.336;55.932;2023-04-25T05:10:40;23.48;;;2.90;;
70729;SDS011;58315;53.336;55.932;2023-04-25T05:13:31;5.90;;;2.70;;
70729;SDS011;58315;53.336;55.932;2023-04-25T05:16:12;8.40;;;3.13;;
70729;SDS011;58315;53.336;55.932;2023-04-25T05:19:11;6.10;;;2.50;;
70729;SDS011;58315;53.336;55.932;2023-04-25T05:21:49;8.32;;;2.40;;
70729;SDS011;58315;53.336;55.932;2023-04-25T05:24:54;7.85;;;2.20;;
70729;SDS011;58315;53.336;55.932;2023-04-25T05:27:48;11.85;;;2.10;;
70729;SDS011;58315;53.336;55.932;2023-04-25T05:30:39;12.15;;;2.15;;
70729;SDS011;58315;53.336;55.932;2023-04-25T05:33:35;10.77;;;2.30;;
70729;SDS011;58315;53.336;55.932;2023-04-25T05:36:01;7.10;;;2.30;;
70729;SDS011;58315;53.336;55.932;2023-04-25T05:38:27;12.07;;;2.10;;
70729;SDS011;58315;53.336;55.932;2023-04-25T05:41:12;9.27;;;2.00;;
70729;SDS011;58315;53.336;55.932;2023-04-25T05:43:45;15.80;;;2.45;;
70729;SDS011;58315;53.336;55.932;2023-04-25T05:46:25;55.00;;;3.55;;
70729;SDS011;58315;53.336;55.932;2023-04-25T05:49:14;23.55;;;2.40;;
70729;SDS011;58315;53.336;55.932;2023-04-25T05:52:02;5.05;;;2.05;;
70729;SDS011;58315;53.336;55.932;2023-04-25T05:54:46;11.45;;;2.15;;
70729;SDS011;58315;53.336;55.932;2023-04-25T05:57:22;16.65;;;1.95;;
70729;SDS011;58315;53.336;55.932;2023-04-25T05:59:50;17.45;;;8.73;;
70729;SDS011;58315;53.336;55.932;2023-04-25T06:02:17;11.63;;;2.33;;
70729;SDS011;58315;53.336;55.932;2023-04-25T06:04:44;8.85;;;2.10;;
70729;SDS011;58315;53.336;55.932;2023-04-25T06:07:10;3.72;;;1.77;;
70729;SDS011;58315;53.336;55.932;2023-04-25T06:09:37;27.92;;;2.40;;
70729;SDS011;58315;53.336;55.932;2023-04-25T06:12:04;7.28;;;2.67;;
70729;SDS011;58315;53.336;55.932;2023-04-25T06:14:32;22.15;;;2.80;;
70729;SDS011;58315;53.336;55.932;2023-04-25T06:16:59;19.30;;;2.10;;
70729;SDS011;58315;53.336;55.932;2023-04-25T06:19:26;8.00;;;1.98;;
70729;SDS011;58315;53.336;55.932;2023-04-25T06:21:52;4.55;;;2.00;;
70729;SDS011;58315;53.336;55.932;2023-04-25T06:24:19;9.52;;;2.38;;
70729;SDS011;58315;53.336;55.932;2023-04-25T06:26:45;16.77;;;2.30;;
70729;SDS011;58315;53.336;55.932;2023-04-25T06:29:13;4.22;;;2.00;;
70729;SDS011;58315;53.336;55.932;2023-04-25T06:31:39;4.68;;;1.92;;
70729;SDS011;58315;53.336;55.932;2023-04-25T06:34:05;12.18;;;2.08;;
70729;SDS011;58315;53.336;55.932;2023-04-25T06:36:35;12.45;;;2.47;;
70729;SDS011;58315;53.336;55.932;2023-04-25T06:39:06;14.30;;;2.00;;
70729;SDS011;58315;53.336;55.932;2023-04-25T06:41:32;5.75;;;2.42;;
70729;SDS011;58315;53.336;55.932;2023-04-25T06:44:01;10.57;;;2.28;;
70729;SDS011;58315;53.336;55.932;2023-04-25T06:46:31;8.85;;;2.40;;
70729;SDS011;58315;53.336;55.932;2023-04-25T06:48:59;5.80;;;1.80;;
70729;SDS011;58315;53.336;55.932;2023-04-25T06:51:25;3.97;;;2.17;;
70729;SDS011;58315;53.336;55.932;2023-04-25T06:53:54;10.13;;;2.30;;
70729;SDS011;58315;53.336;55.932;2023-04-25T06:56:38;23.30;;;2.50;;
70729;SDS011;58315;53.336;55.932;2023-04-25T06:59:10;11.88;;;2.45;;
70729;SDS011;58315;53.336;55.932;2023-04-25T07:01:38;25.67;;;2.33;;
70729;SDS011;58315;53.336;55.932;2023-04-25T07:04:09;7.25;;;2.30;;
70729;SDS011;58315;53.336;55.932;2023-04-25T07:06:40;18.63;;;3.17;;
70729;SDS011;58315;53.336;55.932;2023-04-25T07:09:09;27.75;;;11.43;;
70729;SDS011;58315;53.336;55.932;2023-04-25T07:11:35;5.32;;;2.60;;
70729;SDS011;58315;53.336;55.932;2023-04-25T07:14:02;6.28;;;2.47;;
70729;SDS011;58315;53.336;55.932;2023-04-25T07:16:28;4.75;;;2.40;;
70729;SDS011;58315;53.336;55.932;2023-04-25T07:18:55;11.02;;;2.40;;
70729;SDS011;58315;53.336;55.932;2023-04-25T07:21:21;6.93;;;2.40;;
70729;SDS011;58315;53.336;55.932;2023-04-25T07:23:50;9.00;;;2.33;;
70729;SDS011;58315;53.336;55.932;2023-04-25T07:26:20;9.02;;;2.78;;
70729;SDS011;58315;53.336;55.932;2023-04-25T07:29:10;15.88;;;2.78;;
70729;SDS011;58315;53.336;55.932;2023-04-25T07:31:36;10.57;;;2.33;;
70729;SDS011;58315;53.336;55.932;2023-04-25T07:34:04;4.10;;;2.10;;
70729;SDS011;58315;53.336;55.932;2023-04-25T07:36:31;5.70;;;1.95;;
70729;SDS011;58315;53.336;55.932;2023-04-25T07:38:57;3.65;;;2.20;;
70729;SDS011;58315;53.336;55.932;2023-04-25T07:41:23;8.13;;;2.47;;
70729;SDS011;58315;53.336;55.932;2023-04-25T07:43:49;11.30;;;2.33;;
70729;SDS011;58315;53.336;55.932;2023-04-25T07:46:15;13.43;;;2.35;;
70729;SDS011;58315;53.336;55.932;2023-04-25T07:48:42;6.75;;;1.77;;
70729;SDS011;58315;53.336;55.932;2023-04-25T07:51:08;7.07;;;1.95;;
70729;SDS011;58315;53.336;55.932;2023-04-25T07:53:36;11.30;;;4.50;;
70729;SDS011;58315;53.336;55.932;2023-04-25T07:56:07;12.70;;;2.53;;
70729;SDS011;58315;53.336;55.932;2023-04-25T07:58:36;4.55;;;1.92;;
70729;SDS011;58315;53.336;55.932;2023-04-25T08:01:05;5.32;;;2.10;;
70729;SDS011;58315;53.336;55.932;2023-04-25T08:03:34;4.60;;;1.70;;
70729;SDS011;58315;53.336;55.932;2023-04-25T08:06:03;4.50;;;1.80;;
70729;SDS011;58315;53.336;55.932;2023-04-25T08:08:31;3.75;;;1.95;;
70729;SDS011;58315;53.336;55.932;2023-04-25T08:10:58;8.00;;;1.90;;
70729;SDS011;58315;53.336;55.932;2023-04-25T08:13:24;9.98;;;2.00;;
70729;SDS011;58315;53.336;55.932;2023-04-25T08:15:50;6.30;;;1.92;;
70729;SDS011;58315;53.336;55.932;2023-04-25T08:18:16;22.60;;;2.88;;
70729;SDS011;58315;53.336;55.932;2023-04-25T08:20:43;5.18;;;2.03;;
70729;SDS011;58315;53.336;55.932;2023-04-25T08:23:11;15.32;;;2.05;;
70729;SDS011;58315;53.336;55.932;2023-04-25T08:25:47;20.80;;;2.25;;
70729;SDS011;58315;53.336;55.932;2023-04-25T08:28:16;18.15;;;2.30;;
70729;SDS011;58315;53.336;55.932;2023-04-25T08:30:43;4.35;;;1.85;;
70729;SDS011;58315;53.336;55.932;2023-04-25T08:33:12;6.38;;;1.80;;
70729;SDS011;58315;53.336;55.932;2023-04-25T08:35:48;4.55;;;2.40;;
70729;SDS011;58315;53.336;55.932;2023-04-25T08:38:15;4.18;;;1.98;;
70729;SDS011;58315;53.336;55.932;2023-04-25T08:40:42;15.02;;;2.35;;
70729;SDS011;58315;53.336;55.932;2023-04-25T08:43:15;8.68;;;2.22;;
70729;SDS011;58315;53.336;55.932;2023-04-25T08:45:44;12.80;;;1.70;;
70729;SDS011;58315;53.336;55.932;2023-04-25T08:48:32;6.95;;;2.00;;
70729;SDS011;58315;53.336;55.932;2023-04-25T08:51:01;4.25;;;2.00;;
70729;SDS011;58315;53.336;55.932;2023-04-25T08:53:30;8.45;;;2.25;;
70729;SDS011;58315;53.336;55.932;2023-04-25T08:58:25;12.95;;;1.92;;
70729;SDS011;58315;53.336;55.932;2023-04-25T09:00:52;7.10;;;2.00;;
70729;SDS011;58315;53.336;55.932;2023-04-25T09:03:21;15.60;;;2.40;;
70729;SDS011;58315;53.336;55.932;2023-04-25T09:05:48;17.67;;;2.42;;
70729;SDS011;58315;53.336;55.932;2023-04-25T09:08:15;8.63;;;2.03;;
70729;SDS011;58315;53.336;55.932;2023-04-25T09:10:42;8.57;;;1.70;;
70729;SDS011;58315;53.336;55.932;2023-04-25T09:13:09;17.05;;;2.22;;
70729;SDS011;58315;53.336;55.932;2023-04-25T09:16:04;132.55;;;6.60;;
70729;SDS011;58315;53.336;55.932;2023-04-25T09:18:45;18.10;;;2.40;;
70729;SDS011;58315;53.336;55.932;2023-04-25T09:21:13;10.02;;;2.30;;
70729;SDS011;58315;53.336;55.932;2023-04-25T09:23:48;4.70;;;1.92;;
70729;SDS011;58315;53.336;55.932;2023-04-25T09:26:19;5.90;;;1.80;;
70729;SDS011;58315;53.336;55.932;2023-04-25T09:28:46;20.65;;;2.70;;
70729;SDS011;58315;53.336;55.932;2023-04-25T09:31:22;26.65;;;2.40;;
70729;SDS011;58315;53.336;55.932;2023-04-25T09:34:00;6.95;;;1.92;;
70729;SDS011;58315;53.336;55.932;2023-04-25T09:36:29;4.72;;;1.63;;
70729;SDS011;58315;53.336;55.932;2023-04-25T09:39:14;7.50;;;1.75;;
70729;SDS011;58315;53.336;55.932;2023-04-25T09:41:44;10.20;;;2.08;;
70729;SDS011;58315;53.336;55.932;2023-04-25T09:44:12;14.07;;;2.30;;
70729;SDS011;58315;53.336;55.932;2023-04-25T09:46:40;4.57;;;2.10;;
70729;SDS011;58315;53.336;55.932;2023-04-25T09:49:14;3.97;;;1.80;;
70729;SDS011;58315;53.336;55.932;2023-04-25T09:51:59;2.97;;;1.73;;
70729;SDS011;58315;53.336;55.932;2023-04-25T09:54:35;11.18;;;2.20;;
70729;SDS011;58315;53.336;55.932;2023-04-25T09:57:18;3.50;;;1.80;;
70729;SDS011;58315;53.336;55.932;2023-04-25T09:59:49;12.13;;;2.30;;
70729;SDS011;58315;53.336;55.932;2023-04-25T10:02:23;11.10;;;2.22;;
70729;SDS011;58315;53.336;55.932;2023-04-25T10:04:54;7.75;;;2.35;;
70729;SDS011;58315;53.336;55.932;2023-04-25T10:07:30;5.60;;;1.95;;
70729;SDS011;58315;53.336;55.932;2023-04-25T10:10:01;8.43;;;1.88;;
70729;SDS011;58315;53.336;55.932;2023-04-25T10:12:32;21.00;;;2.22;;
70729;SDS011;58315;53.336;55.932;2023-04-25T10:14:59;40.55;;;2.10;;
70729;SDS011;58315;53.336;55.932;2023-04-25T10:17:26;7.10;;;1.75;;
70729;SDS011;58315;53.336;55.932;2023-04-25T10:19:57;4.18;;;1.80;;
70729;SDS011;58315;53.336;55.932;2023-04-25T10:22:26;8.63;;;2.03;;
70729;SDS011;58315;53.336;55.932;2023-04-25T10:25:00;2.85;;;1.58;;
70729;SDS011;58315;53.336;55.932;2023-04-25T10:27:31;3.60;;;1.75;;
70729;SDS011;58315;53.336;55.932;2023-04-25T10:30:10;3.97;;;1.60;;
70729;SDS011;58315;53.336;55.932;2023-04-25T10:32:44;3.50;;;1.80;;
70729;SDS011;58315;53.336;55.932;2023-04-25T10:35:18;10.30;;;2.15;;
70729;SDS011;58315;53.336;55.932;2023-04-25T10:38:09;4.60;;;1.52;;
70729;SDS011;58315;53.336;55.932;2023-04-25T10:40:38;14.80;;;2.17;;
70729;SDS011;58315;53.336;55.932;2023-04-25T10:45:56;6.07;;;1.60;;
70729;SDS011;58315;53.336;55.932;2023-04-25T10:48:28;6.70;;;2.85;;
70729;SDS011;58315;53.336;55.932;2023-04-25T10:51:08;20.45;;;2.25;;
70729;SDS011;58315;53.336;55.932;2023-04-25T10:53:35;32.47;;;2.85;;
70729;SDS011;58315;53.336;55.932;2023-04-25T10:58:47;3.75;;;2.00;;
70729;SDS011;58315;53.336;55.932;2023-04-25T11:01:15;6.28;;;1.80;;
70729;SDS011;58315;53.336;55.932;2023-04-25T11:03:45;12.38;;;2.15;;
70729;SDS011;58315;53.336;55.932;2023-04-25T11:06:37;4.60;;;2.13;;
70729;SDS011;58315;53.336;55.932;2023-04-25T11:09:17;6.90;;;1.80;;
70729;SDS011;58315;53.336;55.932;2023-04-25T11:11:47;19.95;;;2.10;;
70729;SDS011;58315;53.336;55.932;2023-04-25T11:14:19;8.60;;;2.03;;
70729;SDS011;58315;53.336;55.932;2023-04-25T11:16:45;7.00;;;2.10;;
70729;SDS011;58315;53.336;55.932;2023-04-25T11:19:11;4.60;;;1.80;;
70729;SDS011;58315;53.336;55.932;2023-04-25T11:21:38;3.85;;;1.73;;
70729;SDS011;58315;53.336;55.932;2023-04-25T11:24:04;4.18;;;1.60;;
70729;SDS011;58315;53.336;55.932;2023-04-25T11:26:30;13.02;;;2.03;;
70729;SDS011;58315;53.336;55.932;2023-04-25T11:28:57;4.07;;;1.80;;
70729;SDS011;58315;53.336;55.932;2023-04-25T11:31:24;10.32;;;2.90;;
70729;SDS011;58315;53.336;55.932;2023-04-25T11:33:52;4.85;;;2.05;;
70729;SDS011;58315;53.336;55.932;2023-04-25T11:36:19;12.43;;;1.88;;
70729;SDS011;58315;53.336;55.932;2023-04-25T11:38:45;21.17;;;2.50;;
70729;SDS011;58315;53.336;55.932;2023-04-25T11:41:11;36.70;;;3.60;;
70729;SDS011;58315;53.336;55.932;2023-04-25T11:43:38;22.17;;;2.45;;
70729;SDS011;58315;53.336;55.932;2023-04-25T11:46:06;10.23;;;2.03;;
70729;SDS011;58315;53.336;55.932;2023-04-25T11:48:40;9.63;;;1.85;;
70729;SDS011;58315;53.336;55.932;2023-04-25T11:51:07;3.25;;;1.60;;
70729;SDS011;58315;53.336;55.932;2023-04-25T11:53:33;9.10;;;2.53;;
70729;SDS011;58315;53.336;55.932;2023-04-25T11:56:00;4.32;;;1.70;;
70729;SDS011;58315;53.336;55.932;2023-04-25T11:58:27;4.97;;;1.73;;
70729;SDS011;58315;53.336;55.932;2023-04-25T12:00:53;4.05;;;1.65;;
70729;SDS011;58315;53.336;55.932;2023-04-25T12:03:19;3.60;;;1.83;;
70729;SDS011;58315;53.336;55.932;2023-04-25T12:05:47;12.38;;;1.90;;
70729;SDS011;58315;53.336;55.932;2023-04-25T12:08:13;4.50;;;1.85;;
70729;SDS011;58315;53.336;55.932;2023-04-25T12:10:40;8.13;;;1.95;;
70729;SDS011;58315;53.336;55.932;2023-04-25T12:13:18;5.45;;;2.00;;
70729;SDS011;58315;53.336;55.932;2023-04-25T12:15:47;2.55;;;1.63;;
70729;SDS011;58315;53.336;55.932;2023-04-25T12:18:14;7.78;;;2.20;;
70729;SDS011;58315;53.336;55.932;2023-04-25T12:20:41;7.95;;;1.92;;
70729;SDS011;58315;53.336;55.932;2023-04-25T12:23:08;7.45;;;2.03;;
70729;SDS011;58315;53.336;55.932;2023-04-25T12:25:38;3.72;;;1.58;;
70729;SDS011;58315;53.336;55.932;2023-04-25T12:33:29;5.88;;;1.70;;
70729;SDS011;58315;53.336;55.932;2023-04-25T12:36:01;6.63;;;1.70;;
70729;SDS011;58315;53.336;55.932;2023-04-25T12:38:41;3.03;;;1.73;;
70729;SDS011;58315;53.336;55.932;2023-04-25T12:41:08;4.00;;;1.70;;
70729;SDS011;58315;53.336;55.932;2023-04-25T12:43:34;3.50;;;1.80;;
70729;SDS011;58315;53.336;55.932;2023-04-25T12:46:01;8.60;;;1.98;;
70729;SDS011;58315;53.336;55.932;2023-04-25T12:48:27;6.20;;;2.25;;
70729;SDS011;58315;53.336;55.932;2023-04-25T12:50:53;4.53;;;2.00;;
70729;SDS011;58315;53.336;55.932;2023-04-25T12:53:20;5.60;;;1.65;;
70729;SDS011;58315;53.336;55.932;2023-04-25T12:55:46;4.38;;;2.13;;
70729;SDS011;58315;53.336;55.932;2023-04-25T12:58:13;10.93;;;1.90;;
70729;SDS011;58315;53.336;55.932;2023-04-25T13:00:40;5.95;;;1.73;;
70729;SDS011;58315;53.336;55.932;2023-04-25T13:03:06;13.13;;;2.40;;
70729;SDS011;58315;53.336;55.932;2023-04-25T13:05:35;4.97;;;2.00;;
70729;SDS011;58315;53.336;55.932;2023-04-25T13:08:01;4.82;;;1.90;;
70729;SDS011;58315;53.336;55.932;2023-04-25T13:10:31;26.83;;;2.42;;
70729;SDS011;58315;53.336;55.932;2023-04-25T13:12:59;4.93;;;2.15;;
70729;SDS011;58315;53.336;55.932;2023-04-25T13:15:27;5.93;;;1.92;;
70729;SDS011;58315;53.336;55.932;2023-04-25T13:17:54;5.25;;;1.98;;
70729;SDS011;58315;53.336;55.932;2023-04-25T13:20:20;3.83;;;1.70;;
70729;SDS011;58315;53.336;55.932;2023-04-25T13:22:48;4.93;;;1.40;;
70729;SDS011;58315;53.336;55.932;2023-04-25T13:25:14;5.57;;;1.75;;
70729;SDS011;58315;53.336;55.932;2023-04-25T13:27:41;5.20;;;2.00;;
70729;SDS011;58315;53.336;55.932;2023-04-25T13:30:10;10.15;;;2.15;;
70729;SDS011;58315;53.336;55.932;2023-04-25T13:32:36;5.38;;;1.98;;
70729;SDS011;58315;53.336;55.932;2023-04-25T13:35:05;4.60;;;1.83;;
70729;SDS011;58315;53.336;55.932;2023-04-25T13:37:33;18.85;;;2.55;;
70729;SDS011;58315;53.336;55.932;2023-04-25T13:40:00;7.95;;;1.98;;
70729;SDS011;58315;53.336;55.932;2023-04-25T13:42:32;3.90;;;1.80;;
70729;SDS011;58315;53.336;55.932;2023-04-25T13:44:58;10.60;;;2.35;;
70729;SDS011;58315;53.336;55.932;2023-04-25T13:47:25;10.90;;;2.47;;
70729;SDS011;58315;53.336;55.932;2023-04-25T13:49:52;9.18;;;2.05;;
70729;SDS011;58315;53.336;55.932;2023-04-25T13:52:19;4.53;;;1.90;;
70729;SDS011;58315;53.336;55.932;2023-04-25T13:54:45;4.75;;;1.70;;
70729;SDS011;58315;53.336;55.932;2023-04-25T13:57:11;4.35;;;2.03;;
70729;SDS011;58315;53.336;55.932;2023-04-25T13:59:37;8.27;;;2.10;;
70729;SDS011;58315;53.336;55.932;2023-04-25T14:02:04;9.88;;;1.98;;
70729;SDS011;58315;53.336;55.932;2023-04-25T14:04:30;9.73;;;2.15;;
70729;SDS011;58315;53.336;55.932;2023-04-25T14:06:57;15.75;;;2.10;;
70729;SDS011;58315;53.336;55.932;2023-04-25T14:09:23;6.40;;;2.00;;
70729;SDS011;58315;53.336;55.932;2023-04-25T14:11:51;10.00;;;2.20;;
70729;SDS011;58315;53.336;55.932;2023-04-25T14:14:18;8.63;;;2.10;;
70729;SDS011;58315;53.336;55.932;2023-04-25T14:16:45;6.88;;;1.92;;
70729;SDS011;58315;53.336;55.932;2023-04-25T14:19:14;8.23;;;2.03;;
70729;SDS011;58315;53.336;55.932;2023-04-25T14:21:41;5.53;;;1.98;;
70729;SDS011;58315;53.336;55.932;2023-04-25T14:24:08;10.73;;;2.30;;
70729;SDS011;58315;53.336;55.932;2023-04-25T14:26:34;11.80;;;2.20;;
70729;SDS011;58315;53.336;55.932;2023-04-25T14:29:01;4.93;;;1.92;;
70729;SDS011;58315;53.336;55.932;2023-04-25T14:31:27;8.10;;;2.35;;
70729;SDS011;58315;53.336;55.932;2023-04-25T14:33:54;12.43;;;2.05;;
70729;SDS011;58315;53.336;55.932;2023-04-25T14:36:20;8.00;;;2.00;;
70729;SDS011;58315;53.336;55.932;2023-04-25T14:38:46;9.13;;;2.15;;
70729;SDS011;58315;53.336;55.932;2023-04-25T14:41:12;16.02;;;2.63;;
70729;SDS011;58315;53.336;55.932;2023-04-25T14:43:38;6.82;;;2.00;;
70729;SDS011;58315;53.336;55.932;2023-04-25T14:46:06;8.65;;;2.00;;
70729;SDS011;58315;53.336;55.932;2023-04-25T14:48:32;7.13;;;2.00;;
70729;SDS011;58315;53.336;55.932;2023-04-25T14:50:59;14.43;;;2.10;;
70729;SDS011;58315;53.336;55.932;2023-04-25T14:53:26;10.60;;;1.90;;
70729;SDS011;58315;53.336;55.932;2023-04-25T14:55:52;5.38;;;2.47;;
70729;SDS011;58315;53.336;55.932;2023-04-25T14:58:19;5.85;;;2.45;;